CheckWX is a tool to help pilots better visualize weather data.  It is not intended as a substitute for an official pre-flight weather briefing.

20:45:26 UTC

KMCB METAR
Mc Comb / Pike County / John E Lewis Field Airport
Mc Comb, Mississippi, USA
Current

52 mins ago

KMCB 261953Z AUTO VRB05KT 6SM BR OVC006 09/08 A3000 RMK AO2 RAE35 CIG 005V009 SLP158 P0000 T00940083
Observed
Jan-26 @ 19:53 UTC
Wind
  • Variable at 5 KTS
Visibility
6 SM
Flight Rules
IFR
Conditions
Mist
Cloud Levels
  • Overcast at 600' AGL
Temperature
C / 48°F
Dewpoint
C / 46°F
Humidity
94%
Altimeter
30" Hg
Pressure
1015.92 hPa
Current Rain
0.01"
Previous

1 hour ago

KMCB 261940Z AUTO 12006KT 7SM BKN008 BKN012 OVC019 09/08 A3000 RMK AO2 RAE35 CIG 005V011 P0000 T00940083
Observed
Jan-26 @ 19:40 UTC
Wind
  • 120° at 6 KTS
Visibility
7 SM
Flight Rules
IFR
Cloud Levels
  • Broken at 800' AGL
  • Broken at 1,200' AGL
  • Overcast at 1,900' AGL
Temperature
C / 48°F
Dewpoint
C / 46°F
Humidity
94%
Altimeter
30" Hg
Pressure
1015.92 hPa
Current Rain
0.01"
Previous

2 hours ago

KMCB 261853Z AUTO 14006KT 7SM -RA BKN005 OVC025 09/08 A3004 RMK AO2 RAB05 SLP170 P0006 T00940083
Observed
Jan-26 @ 18:53 UTC
Wind
  • 140° at 6 KTS
Visibility
7 SM
Flight Rules
IFR
Conditions
Light Rain
Cloud Levels
  • Broken at 500' AGL
  • Overcast at 2,500' AGL
Temperature
C / 48°F
Dewpoint
C / 46°F
Humidity
94%
Altimeter
30.04" Hg
Pressure
1017.32 hPa
Current Rain
0.06"